createdAt,value
2022-08-05T00:00:46.403Z,0.00
2022-08-05T00:01:48.936Z,0.00
2022-08-05T00:02:50.982Z,0.00
2022-08-05T00:03:44.107Z,0.00
2022-08-05T00:04:43.097Z,0.00
2022-08-05T00:06:05.770Z,0.00
2022-08-05T00:06:44.073Z,0.00
2022-08-05T00:08:00.158Z,0.00
2022-08-05T00:08:44.060Z,0.00
2022-08-05T00:09:43.050Z,0.00
2022-08-05T00:10:43.101Z,0.00
2022-08-05T00:11:49.648Z,0.00
2022-08-05T00:12:56.189Z,0.00
2022-08-05T00:13:44.004Z,0.00
2022-08-05T00:14:43.990Z,0.00
2022-08-05T00:15:57.525Z,0.00
2022-08-05T00:16:52.386Z,0.00
2022-08-05T00:17:43.961Z,0.00
2022-08-05T00:18:42.948Z,0.00
2022-08-05T00:19:45.778Z,0.00
2022-08-05T00:20:43.927Z,0.00
2022-08-05T00:21:42.971Z,0.00
2022-08-05T00:22:47.143Z,0.00
2022-08-05T00:23:45.731Z,0.00
2022-08-05T00:24:42.894Z,0.00
2022-08-05T00:25:46.120Z,0.00
2022-08-05T00:26:43.401Z,0.00
2022-08-05T00:27:43.911Z,0.00
2022-08-05T00:28:42.842Z,0.00
2022-08-05T00:29:42.837Z,0.00
2022-08-05T00:30:44.196Z,0.00
2022-08-05T00:32:10.514Z,0.00
2022-08-05T00:32:43.803Z,0.00
2022-08-05T00:34:57.050Z,0.00
2022-08-05T00:35:03.361Z,0.00
2022-08-05T00:35:47.834Z,0.00
2022-08-05T00:37:11.883Z,0.00
2022-08-05T00:37:53.104Z,0.00
2022-08-05T00:38:43.788Z,0.00
2022-08-05T00:39:44.494Z,0.00
2022-08-05T00:40:51.940Z,0.00
2022-08-05T00:41:51.675Z,0.00
2022-08-05T00:42:43.700Z,0.00
2022-08-05T00:43:47.023Z,0.00
2022-08-05T00:44:43.700Z,0.00
2022-08-05T00:45:43.565Z,0.00
2022-08-05T00:46:43.774Z,0.00
2022-08-05T00:47:56.870Z,0.00
2022-08-05T00:48:50.866Z,0.00
2022-08-05T00:49:51.113Z,0.00
2022-08-05T00:50:45.834Z,0.00
2022-08-05T00:51:50.750Z,0.00
2022-08-05T00:52:45.496Z,0.00
2022-08-05T00:54:01.349Z,0.00
2022-08-05T00:54:43.599Z,0.00
2022-08-05T00:55:43.794Z,0.00
2022-08-05T00:56:51.325Z,0.00
2022-08-05T00:57:58.452Z,0.00
2022-08-05T00:58:45.009Z,0.00
2022-08-05T00:59:44.638Z,0.00
2022-08-05T01:00:42.688Z,0.00
2022-08-05T01:01:48.296Z,0.00
2022-08-05T01:02:43.491Z,0.00
2022-08-05T01:03:42.481Z,0.00
2022-08-05T01:04:42.649Z,0.00
2022-08-05T01:05:42.459Z,0.00
2022-08-05T01:06:43.738Z,0.00
2022-08-05T01:08:40.885Z,0.00
2022-08-05T01:08:44.516Z,0.00
2022-08-05T01:09:42.454Z,0.00
2022-08-05T01:10:51.570Z,0.00
2022-08-05T01:11:43.394Z,0.00
2022-08-05T01:12:42.382Z,0.00
2022-08-05T01:13:58.346Z,0.00
2022-08-05T01:14:43.391Z,0.00
2022-08-05T01:15:47.723Z,0.00
2022-08-05T01:16:44.196Z,0.00
2022-08-05T01:17:44.244Z,0.00
2022-08-05T01:18:42.323Z,0.00
2022-08-05T01:20:01.940Z,0.00
2022-08-05T01:20:43.297Z,0.00
2022-08-05T01:21:42.293Z,0.00
2022-08-05T01:22:43.288Z,0.00
2022-08-05T01:23:42.271Z,0.00
2022-08-05T01:24:42.361Z,0.00
2022-08-05T01:25:42.256Z,0.00
2022-08-05T01:26:43.239Z,0.00
2022-08-05T01:27:55.539Z,0.00
2022-08-05T01:28:43.216Z,0.00
2022-08-05T01:29:42.940Z,0.00
2022-08-05T01:30:50.610Z,0.00
2022-08-05T01:31:44.917Z,0.00
2022-08-05T01:32:42.183Z,0.00
2022-08-05T01:33:42.164Z,0.00
2022-08-05T01:34:43.149Z,0.00
2022-08-05T01:35:51.042Z,0.00
2022-08-05T01:36:46.813Z,0.00
2022-08-05T01:37:44.605Z,0.00
2022-08-05T01:38:42.111Z,0.00
2022-08-05T01:39:47.897Z,0.00
2022-08-05T01:40:42.097Z,0.00
2022-08-05T01:41:44.358Z,0.00
2022-08-05T01:42:42.214Z,0.00
2022-08-05T01:43:42.065Z,0.00
2022-08-05T01:44:42.047Z,0.00
2022-08-05T01:45:42.798Z,0.00
2022-08-05T01:46:46.298Z,0.00
2022-08-05T01:47:43.488Z,0.00
2022-08-05T01:48:42.165Z,0.00
2022-08-05T01:50:00.279Z,0.00
2022-08-05T01:50:50.988Z,0.00
2022-08-05T01:51:42.981Z,0.00
2022-08-05T01:52:42.971Z,0.00
2022-08-05T01:53:57.121Z,0.00
2022-08-05T01:54:45.754Z,0.00
2022-08-05T01:55:41.937Z,0.00
2022-08-05T01:58:29.709Z,0.00
2022-08-05T01:58:30.189Z,0.00
2022-08-05T01:58:45.088Z,0.00
2022-08-05T01:59:41.898Z,0.00
2022-08-05T02:00:42.887Z,0.00
2022-08-05T02:01:41.937Z,0.00
2022-08-05T02:02:46.453Z,0.00
2022-08-05T02:03:42.910Z,0.00
2022-08-05T02:04:41.844Z,0.00
2022-08-05T02:05:42.672Z,0.00
2022-08-05T02:06:41.818Z,0.00
2022-08-05T02:07:41.816Z,0.00
2022-08-05T02:08:55.030Z,0.00
2022-08-05T02:09:42.821Z,0.00
2022-08-05T02:10:41.781Z,0.00
2022-08-05T02:11:42.239Z,0.00
2022-08-05T02:12:42.760Z,0.00
2022-08-05T02:13:53.457Z,0.00
2022-08-05T02:14:43.253Z,0.00
2022-08-05T02:15:41.733Z,0.00
2022-08-05T02:16:41.719Z,0.00
2022-08-05T02:18:27.712Z,0.00
2022-08-05T02:18:42.700Z,0.00
2022-08-05T02:19:47.382Z,0.00
2022-08-05T02:20:42.680Z,0.00
2022-08-05T02:21:43.358Z,0.00
2022-08-05T02:22:42.653Z,0.00
2022-08-05T02:23:41.645Z,0.00
2022-08-05T02:24:41.636Z,0.00
2022-08-05T02:25:49.994Z,0.00
2022-08-05T02:26:54.207Z,0.00
2022-08-05T02:27:58.307Z,0.00
2022-08-05T02:28:46.007Z,0.00
2022-08-05T02:29:59.715Z,0.00
2022-08-05T02:30:51.773Z,0.00
2022-08-05T02:31:42.561Z,0.00
2022-08-05T02:32:41.563Z,0.00
2022-08-05T02:33:41.542Z,0.00
2022-08-05T02:34:41.531Z,0.00
2022-08-05T02:35:49.891Z,0.00
2022-08-05T02:36:42.522Z,0.00
2022-08-05T02:37:41.497Z,0.00
2022-08-05T02:38:41.486Z,0.00
2022-08-05T02:39:41.588Z,0.00
2022-08-05T02:40:42.515Z,0.00
2022-08-05T02:41:43.154Z,0.00
2022-08-05T02:42:42.440Z,0.00
2022-08-05T02:44:02.327Z,0.00
2022-08-05T02:44:42.425Z,0.00
2022-08-05T02:45:52.206Z,0.00
2022-08-05T02:46:53.789Z,0.00
2022-08-05T02:47:58.656Z,0.00
2022-08-05T02:48:42.383Z,0.00
2022-08-05T02:49:41.373Z,0.00
2022-08-05T02:50:43.581Z,0.00
2022-08-05T02:52:03.853Z,0.00
2022-08-05T02:52:42.340Z,0.00
2022-08-05T02:53:41.336Z,0.00
2022-08-05T02:54:42.192Z,0.00
2022-08-05T02:55:54.008Z,0.00
2022-08-05T02:56:42.341Z,0.00
2022-08-05T02:58:10.986Z,0.00
2022-08-05T02:58:43.789Z,0.00
2022-08-05T02:59:47.878Z,0.00
2022-08-05T03:00:42.254Z,0.00
2022-08-05T03:01:41.309Z,0.00
2022-08-05T03:02:41.262Z,0.00
2022-08-05T03:04:02.836Z,0.00
2022-08-05T03:04:42.210Z,0.00
2022-08-05T03:06:54.300Z,0.00
2022-08-05T03:06:54.484Z,0.00
2022-08-05T03:08:06.779Z,0.00
2022-08-05T03:08:42.570Z,0.00
2022-08-05T03:09:43.902Z,0.00
2022-08-05T03:10:42.151Z,0.00
2022-08-05T03:11:55.141Z,0.00
2022-08-05T03:12:42.155Z,0.00
2022-08-05T03:13:51.707Z,0.00
2022-08-05T03:14:46.132Z,0.00
2022-08-05T03:15:42.096Z,0.00
2022-08-05T03:16:41.096Z,0.00
2022-08-05T03:17:41.775Z,0.00
2022-08-05T03:18:42.115Z,0.00
2022-08-05T03:19:41.887Z,0.00
2022-08-05T03:20:44.540Z,0.00
2022-08-05T03:21:49.413Z,0.00
2022-08-05T03:22:44.131Z,0.00
2022-08-05T03:23:42.046Z,0.00
2022-08-05T03:24:40.999Z,0.00
2022-08-05T03:26:04.497Z,0.00
2022-08-05T03:26:42.018Z,0.00
2022-08-05T03:28:00.212Z,0.00
2022-08-05T03:28:41.957Z,0.00
2022-08-05T03:29:45.378Z,0.00
2022-08-05T03:30:42.470Z,0.00
2022-08-05T03:31:57.036Z,0.00
2022-08-05T03:32:41.930Z,0.00
2022-08-05T03:33:52.833Z,0.00
2022-08-05T03:34:41.898Z,0.00
2022-08-05T03:35:41.826Z,0.00
2022-08-05T03:36:40.950Z,0.00
2022-08-05T03:37:46.450Z,0.00
2022-08-05T03:38:41.872Z,0.00
2022-08-05T03:39:57.734Z,0.00
2022-08-05T03:40:45.279Z,0.00
2022-08-05T03:41:45.350Z,0.00
2022-08-05T03:42:51.963Z,0.00
2022-08-05T03:44:09.902Z,0.00
2022-08-05T03:44:41.791Z,0.00
2022-08-05T03:45:55.074Z,0.00
2022-08-05T03:46:41.766Z,0.00
2022-08-05T03:47:41.349Z,0.00
2022-08-05T03:48:40.750Z,0.00
2022-08-05T03:49:51.585Z,0.00
2022-08-05T03:50:41.900Z,0.00
2022-08-05T03:52:49.231Z,0.00
2022-08-05T03:55:06.779Z,0.00
2022-08-05T03:55:34.715Z,0.00
2022-08-05T03:55:50.220Z,0.00
2022-08-05T03:56:04.592Z,0.00
2022-08-05T03:56:41.691Z,0.00
2022-08-05T03:57:41.538Z,0.00
2022-08-05T03:58:41.159Z,0.00
2022-08-05T03:59:47.302Z,0.00
2022-08-05T04:00:42.058Z,0.00
2022-08-05T04:01:40.666Z,0.00
2022-08-05T04:02:52.230Z,0.00
2022-08-05T04:03:41.588Z,0.00
2022-08-05T04:04:41.575Z,0.00
2022-08-05T04:05:40.563Z,0.00
2022-08-05T04:06:48.040Z,0.00
2022-08-05T04:07:57.468Z,0.00
2022-08-05T04:08:41.541Z,0.00
2022-08-05T04:09:53.603Z,0.00
2022-08-05T04:10:41.510Z,0.00
2022-08-05T04:11:50.801Z,0.00
2022-08-05T04:13:11.442Z,0.00
2022-08-05T04:14:11.458Z,0.00
2022-08-05T04:15:15.529Z,0.00
2022-08-05T04:16:11.405Z,0.00
2022-08-05T04:17:11.423Z,0.00
2022-08-05T04:18:20.525Z,0.00
2022-08-05T04:19:12.372Z,0.00
2022-08-05T04:20:11.363Z,0.00
2022-08-05T04:21:11.354Z,0.00
2022-08-05T04:22:12.320Z,5.62
2022-08-05T04:23:12.569Z,5.62
2022-08-05T04:24:19.129Z,5.62
2022-08-05T04:25:12.317Z,5.62
2022-08-05T04:26:11.300Z,5.62
2022-08-05T04:27:11.322Z,5.62
2022-08-05T04:28:12.776Z,5.62
2022-08-05T04:29:11.268Z,5.62
2022-08-05T04:30:11.260Z,5.62
2022-08-05T04:31:11.249Z,5.62
2022-08-05T04:32:11.276Z,5.62
2022-08-05T04:33:11.226Z,5.62
2022-08-05T04:34:19.159Z,5.62
2022-08-05T04:35:17.618Z,5.62
2022-08-05T04:36:45.871Z,5.62
2022-08-05T04:37:12.782Z,5.62
2022-08-05T04:38:11.182Z,5.62
2022-08-05T04:39:11.296Z,5.62
2022-08-05T04:40:11.152Z,5.62
2022-08-05T04:41:11.136Z,5.62
2022-08-05T04:42:11.165Z,5.62
2022-08-05T04:43:16.310Z,5.62
2022-08-05T04:44:12.105Z,5.62
2022-08-05T04:45:11.096Z,5.62
2022-08-05T04:46:12.079Z,11.25
2022-08-05T04:47:14.597Z,11.25
2022-08-05T04:48:16.534Z,11.25
2022-08-05T04:49:14.664Z,11.25
2022-08-05T04:50:11.765Z,11.25
2022-08-05T04:51:11.670Z,11.25
2022-08-05T04:52:11.083Z,11.25
2022-08-05T04:53:11.024Z,11.25
2022-08-05T04:54:12.167Z,11.25
2022-08-05T04:55:14.589Z,11.25
2022-08-05T04:56:32.179Z,11.25
2022-08-05T04:57:11.965Z,11.25
2022-08-05T04:58:12.416Z,11.25
2022-08-05T04:59:21.607Z,11.25
2022-08-05T05:00:11.937Z,11.25
2022-08-05T05:01:11.031Z,11.25
2022-08-05T05:02:36.680Z,11.25
2022-08-05T05:03:12.039Z,11.25
2022-08-05T05:04:11.928Z,11.25
2022-08-05T05:05:16.626Z,11.25
2022-08-05T05:06:35.899Z,11.25
2022-08-05T05:07:11.857Z,11.25
2022-08-05T05:08:14.483Z,11.25
2022-08-05T05:09:16.072Z,11.25
2022-08-05T05:10:11.863Z,11.25
2022-08-05T05:11:10.816Z,11.25
2022-08-05T05:12:10.808Z,11.25
2022-08-05T05:13:10.795Z,11.25
2022-08-05T05:14:10.785Z,11.25
2022-08-05T05:15:11.822Z,11.25
2022-08-05T05:16:11.765Z,11.25
2022-08-05T05:17:10.748Z,11.25
2022-08-05T05:18:10.740Z,11.25
2022-08-05T05:19:19.439Z,11.25
2022-08-05T05:20:11.763Z,11.25
2022-08-05T05:21:10.708Z,11.25
2022-08-05T05:22:23.943Z,11.25
2022-08-05T05:23:19.961Z,11.25
2022-08-05T05:24:11.674Z,11.25
2022-08-05T05:25:17.114Z,11.25
2022-08-05T05:26:11.650Z,11.25
2022-08-05T05:27:10.642Z,11.25
2022-08-05T05:28:10.631Z,11.25
2022-08-05T05:29:14.745Z,11.25
2022-08-05T05:30:28.789Z,11.25
2022-08-05T05:31:11.597Z,11.25
2022-08-05T05:32:12.395Z,11.25
2022-08-05T05:33:17.209Z,11.25
2022-08-05T05:34:11.568Z,11.25
2022-08-05T05:35:10.591Z,11.25
2022-08-05T05:36:11.580Z,11.25
2022-08-05T05:37:10.532Z,11.25
2022-08-05T05:38:12.853Z,11.25
2022-08-05T05:39:10.964Z,11.25
2022-08-05T05:40:10.499Z,11.25
2022-08-05T05:41:10.495Z,11.25
2022-08-05T05:42:10.479Z,16.88
2022-08-05T05:43:10.497Z,11.25
2022-08-05T05:44:35.433Z,11.25
2022-08-05T05:45:11.461Z,11.25
2022-08-05T05:46:15.784Z,5.62
2022-08-05T05:47:21.489Z,5.62
2022-08-05T05:48:11.439Z,5.62
2022-08-05T05:49:22.395Z,5.62
2022-08-05T05:50:11.390Z,11.25
2022-08-05T05:51:15.125Z,11.25
2022-08-05T05:52:20.203Z,11.25
2022-08-05T05:53:22.395Z,11.25
2022-08-05T05:54:11.646Z,16.88
2022-08-05T05:55:13.517Z,16.88
2022-08-05T05:56:10.326Z,11.25
2022-08-05T05:57:13.885Z,11.25
2022-08-05T05:58:11.346Z,11.25
2022-08-05T05:59:10.320Z,11.25
2022-08-05T06:00:10.289Z,11.25
2022-08-05T06:01:13.286Z,11.25
2022-08-05T06:02:11.259Z,11.25
2022-08-05T06:03:28.389Z,11.25
2022-08-05T06:04:12.699Z,11.25
2022-08-05T06:05:16.658Z,11.25
2022-08-05T06:06:11.217Z,11.25
2022-08-05T06:07:10.582Z,11.25
2022-08-05T06:08:10.198Z,11.25
2022-08-05T06:09:17.113Z,11.25
2022-08-05T06:10:11.193Z,11.25
2022-08-05T06:11:10.171Z,16.88
2022-08-05T06:12:10.183Z,16.88
2022-08-05T06:13:10.143Z,16.88
2022-08-05T06:14:10.189Z,22.50
2022-08-05T06:15:16.471Z,22.50
2022-08-05T06:16:30.902Z,22.50
2022-08-05T06:17:24.327Z,22.50
2022-08-05T06:18:11.272Z,22.50
2022-08-05T06:19:10.081Z,22.50
2022-08-05T06:20:18.699Z,22.50
2022-08-05T06:21:18.464Z,22.50
2022-08-05T06:22:11.052Z,28.12
2022-08-05T06:23:10.037Z,28.12
2022-08-05T06:24:12.133Z,28.12
2022-08-05T06:25:59.431Z,28.12
2022-08-05T06:26:13.639Z,22.50
2022-08-05T06:27:17.338Z,22.50
2022-08-05T06:28:21.446Z,22.50
2022-08-05T06:29:43.087Z,28.12
2022-08-05T06:30:18.129Z,22.50
2022-08-05T06:31:18.111Z,28.12
2022-08-05T06:32:21.321Z,22.50
2022-08-05T06:33:11.003Z,22.50
2022-08-05T06:34:09.995Z,16.88
2022-08-05T06:35:15.599Z,28.12
2022-08-05T06:36:10.927Z,28.12
2022-08-05T06:37:09.908Z,33.75
2022-08-05T06:38:11.903Z,39.38
2022-08-05T06:39:09.924Z,45.00
2022-08-05T06:40:09.902Z,45.00
2022-08-05T06:41:09.841Z,45.00
2022-08-05T06:42:09.835Z,45.00
2022-08-05T06:43:58.246Z,45.00
2022-08-05T06:44:10.815Z,45.00
2022-08-05T06:45:09.803Z,45.00
2022-08-05T06:46:10.983Z,45.00
2022-08-05T06:47:10.274Z,45.00
2022-08-05T06:48:37.246Z,45.00
2022-08-05T06:49:10.761Z,45.00
2022-08-05T06:50:09.752Z,45.00
2022-08-05T06:51:12.113Z,50.62
2022-08-05T06:52:37.893Z,39.38
2022-08-05T06:53:11.405Z,50.62
2022-08-05T06:54:09.705Z,45.00
2022-08-05T06:55:09.772Z,50.62
2022-08-05T06:56:25.879Z,45.00
2022-08-05T06:57:57.737Z,45.00
2022-08-05T06:58:30.230Z,33.75
2022-08-05T06:59:11.942Z,33.75
2022-08-05T07:00:09.956Z,33.75
2022-08-05T07:01:09.697Z,39.38
2022-08-05T07:02:09.642Z,39.38
2022-08-05T07:03:09.928Z,33.75
2022-08-05T07:04:09.602Z,33.75
2022-08-05T07:05:15.341Z,39.38
2022-08-05T07:06:15.218Z,39.38
2022-08-05T07:07:09.574Z,45.00
2022-08-05T07:08:10.660Z,33.75
2022-08-05T07:09:09.578Z,45.00
2022-08-05T07:10:09.542Z,50.62
2022-08-05T07:11:15.503Z,45.00
2022-08-05T07:12:10.518Z,56.25
2022-08-05T07:13:09.506Z,50.62
2022-08-05T07:14:19.954Z,56.25
2022-08-05T07:15:10.529Z,56.25
2022-08-05T07:16:12.027Z,56.25
2022-08-05T07:18:01.237Z,50.62
2022-08-05T07:18:12.555Z,45.00
2022-08-05T07:19:10.446Z,45.00
2022-08-05T07:21:10.464Z,50.62
2022-08-05T07:22:09.450Z,50.62
2022-08-05T07:23:09.407Z,45.00
2022-08-05T07:24:11.288Z,45.00
2022-08-05T07:25:23.655Z,45.00
2022-08-05T07:26:10.393Z,45.00
2022-08-05T07:27:09.400Z,39.38
2022-08-05T07:28:11.817Z,39.38
2022-08-05T07:29:10.341Z,39.38
2022-08-05T07:30:27.679Z,45.00
2022-08-05T07:31:10.318Z,45.00
2022-08-05T07:32:09.307Z,50.62
2022-08-05T07:33:10.579Z,50.62
2022-08-05T07:34:10.289Z,45.00
2022-08-05T07:36:02.193Z,50.62
2022-08-05T07:36:20.747Z,45.00
2022-08-05T07:37:11.594Z,50.62
2022-08-05T07:38:12.124Z,50.62
2022-08-05T07:39:24.462Z,50.62
2022-08-05T07:40:31.516Z,50.62
2022-08-05T07:42:07.317Z,56.25
2022-08-05T07:42:15.125Z,50.62
2022-08-05T07:43:20.240Z,50.62
2022-08-05T07:44:14.121Z,50.62
2022-08-05T07:45:09.431Z,45.00
2022-08-05T07:46:18.205Z,45.00
2022-08-05T07:47:10.218Z,45.00
2022-08-05T07:48:09.136Z,45.00
2022-08-05T07:49:09.124Z,33.75
2022-08-05T07:50:09.119Z,28.12
2022-08-05T07:51:23.548Z,22.50
2022-08-05T07:52:10.135Z,22.50
2022-08-05T07:53:09.079Z,16.88
2022-08-05T07:54:10.018Z,16.88
2022-08-05T07:55:16.049Z,16.88
2022-08-05T07:57:00.287Z,16.88
2022-08-05T07:57:22.539Z,11.25
2022-08-05T07:58:17.552Z,11.25
2022-08-05T07:59:10.035Z,11.25
2022-08-05T08:00:11.407Z,11.25
2022-08-05T08:01:12.139Z,5.62
2022-08-05T08:02:15.413Z,5.62
2022-08-05T08:03:14.270Z,5.62
2022-08-05T08:04:09.998Z,11.25
2022-08-05T08:05:09.008Z,11.25
2022-08-05T08:06:08.948Z,11.25
2022-08-05T08:07:08.939Z,11.25
2022-08-05T08:08:12.435Z,11.25
2022-08-05T08:09:08.915Z,5.62
2022-08-05T08:10:09.152Z,5.62
2022-08-05T08:11:09.150Z,11.25
2022-08-05T08:12:30.605Z,11.25
2022-08-05T08:13:09.874Z,11.25
2022-08-05T08:14:08.860Z,11.25
2022-08-05T08:15:09.401Z,11.25
2022-08-05T08:16:35.949Z,11.25
2022-08-05T08:17:09.830Z,5.62
2022-08-05T08:18:14.197Z,11.25
2022-08-05T08:19:08.813Z,11.25
2022-08-05T08:20:43.275Z,11.25
2022-08-05T08:21:17.461Z,11.25
2022-08-05T08:22:09.785Z,16.88
2022-08-05T08:23:59.733Z,16.88
2022-08-05T08:24:13.990Z,16.88
2022-08-05T08:25:16.251Z,16.88
2022-08-05T08:26:09.728Z,16.88
2022-08-05T08:27:08.723Z,16.88
2022-08-05T08:28:18.213Z,22.50
2022-08-05T08:29:45.117Z,22.50
2022-08-05T08:30:28.589Z,22.50
2022-08-05T08:31:09.669Z,28.12
2022-08-05T08:32:10.797Z,33.75
2022-08-05T08:33:08.687Z,33.75
2022-08-05T08:34:09.718Z,28.12
2022-08-05T08:35:13.456Z,22.50
2022-08-05T08:37:09.617Z,22.50
2022-08-05T08:38:08.605Z,22.50
2022-08-05T08:39:14.992Z,16.88
2022-08-05T08:40:09.580Z,16.88
2022-08-05T08:41:08.783Z,11.25
2022-08-05T08:42:32.395Z,11.25
2022-08-05T08:45:16.282Z,16.88
2022-08-05T08:45:20.314Z,11.25
2022-08-05T08:45:25.407Z,11.25
2022-08-05T08:46:09.841Z,11.25
2022-08-05T08:47:21.775Z,11.25
2022-08-05T08:48:22.586Z,11.25
2022-08-05T08:50:22.252Z,11.25
2022-08-05T08:50:32.732Z,11.25
2022-08-05T08:51:22.839Z,11.25
2022-08-05T08:52:13.829Z,11.25
2022-08-05T08:53:12.370Z,11.25
2022-08-05T08:54:08.430Z,16.88
2022-08-05T08:55:13.259Z,16.88
2022-08-05T08:56:08.407Z,11.25
2022-08-05T08:57:11.556Z,11.25
2022-08-05T08:58:08.589Z,11.25
2022-08-05T08:59:14.906Z,11.25
2022-08-05T09:00:09.413Z,5.62
2022-08-05T09:01:10.887Z,5.62
2022-08-05T09:02:09.351Z,5.62
2022-08-05T09:03:08.342Z,11.25
2022-08-05T09:04:10.743Z,11.25
2022-08-05T09:05:17.626Z,11.25
2022-08-05T09:06:11.519Z,11.25
2022-08-05T09:07:19.372Z,11.25
2022-08-05T09:08:09.788Z,11.25
2022-08-05T09:09:08.299Z,5.62
2022-08-05T09:10:08.289Z,5.62
2022-08-05T09:11:08.249Z,5.62
2022-08-05T09:12:20.204Z,11.25
2022-08-05T09:13:09.235Z,11.25
2022-08-05T09:14:54.101Z,16.88
2022-08-05T09:15:09.209Z,22.50
2022-08-05T09:16:08.194Z,33.75
2022-08-05T09:17:09.462Z,45.00
2022-08-05T09:18:08.851Z,50.62
2022-08-05T09:19:08.174Z,56.25
2022-08-05T09:20:08.538Z,45.00
2022-08-05T09:21:11.451Z,28.12
2022-08-05T09:22:22.447Z,22.50
2022-08-05T09:23:09.741Z,22.50
2022-08-05T09:24:10.217Z,22.50
2022-08-05T09:25:13.945Z,22.50
2022-08-05T09:26:09.398Z,28.12
2022-08-05T09:27:08.077Z,28.12
2022-08-05T09:28:08.083Z,33.75
2022-08-05T09:29:08.997Z,33.75
2022-08-05T09:30:08.105Z,39.38
2022-08-05T09:31:43.824Z,56.25
2022-08-05T09:32:41.708Z,90.00
2022-08-05T09:33:09.007Z,123.75
2022-08-05T09:34:09.773Z,140.62
2022-08-05T09:35:07.991Z,95.62
2022-08-05T09:36:16.407Z,95.62
2022-08-05T09:37:15.228Z,84.38
2022-08-05T09:38:17.572Z,73.12
2022-08-05T09:39:18.063Z,50.62
2022-08-05T09:40:09.045Z,45.00
2022-08-05T09:41:08.198Z,45.00
2022-08-05T09:42:07.945Z,45.00
2022-08-05T09:43:08.397Z,50.62
2022-08-05T09:44:07.933Z,73.12
2022-08-05T09:46:05.156Z,151.88
2022-08-05T09:46:09.071Z,140.62
2022-08-05T09:47:10.239Z,112.50
2022-08-05T09:48:07.856Z,95.62
2022-08-05T09:49:18.927Z,50.62
2022-08-05T09:50:08.870Z,39.38
2022-08-05T09:51:15.197Z,33.75
2022-08-05T09:52:08.804Z,28.12
2022-08-05T09:53:08.895Z,22.50
2022-08-05T09:54:09.429Z,16.88
2022-08-05T09:55:56.449Z,16.88
2022-08-05T09:56:13.313Z,16.88
2022-08-05T09:57:23.457Z,11.25
2022-08-05T09:58:08.756Z,5.62
2022-08-05T09:59:07.738Z,5.62
2022-08-05T10:00:09.913Z,5.62
2022-08-05T10:01:13.279Z,5.62
2022-08-05T10:02:08.717Z,5.62
2022-08-05T10:03:07.769Z,5.62
2022-08-05T10:04:10.549Z,5.62
2022-08-05T10:05:08.005Z,5.62
2022-08-05T10:06:07.811Z,5.62
2022-08-05T10:07:20.450Z,5.62
2022-08-05T10:08:35.112Z,5.62
2022-08-05T10:09:08.625Z,5.62
2022-08-05T10:10:14.978Z,5.62
2022-08-05T10:11:08.631Z,5.62
2022-08-05T10:12:07.641Z,5.62
2022-08-05T10:13:09.685Z,5.62
2022-08-05T10:14:07.578Z,11.25
2022-08-05T10:15:07.559Z,11.25
2022-08-05T10:16:07.592Z,16.88
2022-08-05T10:17:07.560Z,22.50
2022-08-05T10:18:08.542Z,22.50
2022-08-05T10:19:09.215Z,22.50
2022-08-05T10:20:11.024Z,16.88
2022-08-05T10:21:11.691Z,16.88
2022-08-05T10:22:08.982Z,16.88
2022-08-05T10:23:08.880Z,16.88
2022-08-05T10:24:10.889Z,22.50
2022-08-05T10:25:07.592Z,22.50
2022-08-05T10:26:07.453Z,28.12
2022-08-05T10:27:08.486Z,28.12
2022-08-05T10:28:13.001Z,33.75
2022-08-05T10:29:08.410Z,22.50
2022-08-05T10:31:20.728Z,16.88
2022-08-05T10:32:53.120Z,16.88
2022-08-05T10:32:54.721Z,11.25
2022-08-05T10:33:09.395Z,11.25
2022-08-05T10:34:08.392Z,11.25
2022-08-05T10:35:07.354Z,16.88
2022-08-05T10:36:07.373Z,16.88
2022-08-05T10:37:07.332Z,16.88
2022-08-05T10:38:08.363Z,16.88
2022-08-05T10:39:10.477Z,16.88
2022-08-05T10:40:17.960Z,16.88
2022-08-05T10:41:08.353Z,16.88
2022-08-05T10:42:07.272Z,11.25
2022-08-05T10:43:07.270Z,11.25
2022-08-05T10:44:07.250Z,11.25
2022-08-05T10:45:21.007Z,11.25
2022-08-05T10:46:08.261Z,11.25
2022-08-05T10:47:10.136Z,11.25
2022-08-05T10:48:31.005Z,11.25
2022-08-05T10:49:10.415Z,11.25
2022-08-05T10:50:31.588Z,16.88
2022-08-05T10:51:21.975Z,16.88
2022-08-05T10:52:10.287Z,16.88
2022-08-05T10:53:07.155Z,16.88
2022-08-05T10:54:28.741Z,16.88
2022-08-05T10:55:08.132Z,16.88
2022-08-05T10:56:21.411Z,22.50
2022-08-05T10:57:08.134Z,22.50
2022-08-05T10:58:07.106Z,33.75
2022-08-05T11:00:01.170Z,73.12
2022-08-05T11:00:18.260Z,343.12
2022-08-05T11:01:08.074Z,663.75
2022-08-05T11:02:07.221Z,489.38
2022-08-05T11:03:23.012Z,258.75
2022-08-05T11:04:08.080Z,140.62
2022-08-05T11:05:07.028Z,95.62
2022-08-05T11:06:08.618Z,78.75
2022-08-05T11:07:08.096Z,61.88
2022-08-05T11:08:27.505Z,45.00
2022-08-05T11:09:07.987Z,33.75
2022-08-05T11:10:09.940Z,28.12
2022-08-05T11:11:14.538Z,33.75
2022-08-05T11:12:07.948Z,33.75
2022-08-05T11:13:06.978Z,45.00
2022-08-05T11:14:06.928Z,56.25
2022-08-05T11:15:19.467Z,50.62
2022-08-05T11:16:07.914Z,50.62
2022-08-05T11:17:57.543Z,56.25
2022-08-05T11:18:09.790Z,61.88
2022-08-05T11:20:11.399Z,84.38
2022-08-05T11:20:17.375Z,73.12
2022-08-05T11:21:11.573Z,663.75
2022-08-05T11:22:06.843Z,388.12
2022-08-05T11:23:10.433Z,731.25
2022-08-05T11:24:30.325Z,270.00
2022-08-05T11:25:16.914Z,303.75
2022-08-05T11:26:09.173Z,292.50
2022-08-05T11:27:06.796Z,573.75
2022-08-05T11:28:06.822Z,888.75
2022-08-05T11:29:13.245Z,1040.62
2022-08-05T11:30:07.802Z,466.88
2022-08-05T11:31:06.886Z,247.50
2022-08-05T11:32:06.734Z,286.88
2022-08-05T11:33:06.928Z,151.88
2022-08-05T11:34:08.063Z,275.62
2022-08-05T11:35:06.710Z,168.75
2022-08-05T11:36:07.886Z,129.38
2022-08-05T11:38:29.464Z,281.25
2022-08-05T11:38:29.693Z,331.88
2022-08-05T11:39:07.769Z,1299.38
2022-08-05T11:40:06.657Z,1946.25
2022-08-05T11:41:34.795Z,1434.38
2022-08-05T11:42:07.677Z,478.12
2022-08-05T11:43:06.625Z,230.62
2022-08-05T11:44:08.381Z,219.38
2022-08-05T11:45:26.786Z,191.25
2022-08-05T11:46:15.325Z,185.62
2022-08-05T11:47:12.120Z,225.00
2022-08-05T11:48:07.596Z,118.12
2022-08-05T11:49:08.088Z,123.75
2022-08-05T11:50:06.547Z,225.00
2022-08-05T11:51:06.534Z,219.38
2022-08-05T11:52:11.620Z,225.00
2022-08-05T11:53:09.982Z,585.00
2022-08-05T11:54:06.498Z,1220.62
2022-08-05T11:55:07.665Z,1046.25
2022-08-05T11:56:06.481Z,298.12
2022-08-05T11:57:07.926Z,180.00
2022-08-05T11:58:10.386Z,180.00
2022-08-05T11:59:13.697Z,168.75
2022-08-05T12:00:07.440Z,157.50
2022-08-05T12:01:10.378Z,163.12
2022-08-05T12:02:06.419Z,157.50
2022-08-05T12:03:07.433Z,146.25
2022-08-05T12:04:06.396Z,151.88
2022-08-05T12:05:07.279Z,151.88
2022-08-05T12:06:10.192Z,140.62
2022-08-05T12:07:06.363Z,146.25
2022-08-05T12:08:09.909Z,112.50
2022-08-05T12:09:06.343Z,123.75
2022-08-05T12:10:09.417Z,129.38
2022-08-05T12:11:07.326Z,129.38
2022-08-05T12:12:06.311Z,129.38
2022-08-05T12:13:15.908Z,123.75
2022-08-05T12:14:07.575Z,118.12
2022-08-05T12:15:06.282Z,112.50
2022-08-05T12:16:14.164Z,118.12
2022-08-05T12:18:00.568Z,84.38
2022-08-05T12:18:10.613Z,95.62
2022-08-05T12:19:08.452Z,90.00
2022-08-05T12:20:27.017Z,90.00
2022-08-05T12:21:07.223Z,118.12
2022-08-05T12:22:09.642Z,95.62
2022-08-05T12:23:06.231Z,84.38
2022-08-05T12:24:07.329Z,84.38
2022-08-05T12:25:06.183Z,78.75
2022-08-05T12:26:06.164Z,84.38
2022-08-05T12:27:09.925Z,78.75
2022-08-05T12:28:07.196Z,78.75
2022-08-05T12:29:09.582Z,73.12
2022-08-05T12:30:07.134Z,73.12
2022-08-05T12:31:06.127Z,73.12
2022-08-05T12:32:07.446Z,73.12
2022-08-05T12:33:07.190Z,73.12
2022-08-05T12:34:07.129Z,73.12
2022-08-05T12:35:06.075Z,73.12
2022-08-05T12:36:07.308Z,61.88
2022-08-05T12:37:06.055Z,67.50
2022-08-05T12:38:06.043Z,90.00
2022-08-05T12:39:07.059Z,78.75
2022-08-05T12:40:10.773Z,84.38
2022-08-05T12:41:12.458Z,67.50
2022-08-05T12:42:08.513Z,61.88
2022-08-05T12:43:05.990Z,67.50
2022-08-05T12:44:06.017Z,67.50
2022-08-05T12:45:09.397Z,56.25
2022-08-05T12:46:05.964Z,56.25
2022-08-05T12:47:05.948Z,67.50
2022-08-05T12:48:27.633Z,67.50
2022-08-05T12:49:13.672Z,56.25
2022-08-05T12:50:07.341Z,39.38
2022-08-05T12:51:05.913Z,56.25
2022-08-05T12:52:12.982Z,61.88
2022-08-05T12:53:06.891Z,45.00
2022-08-05T12:54:16.614Z,61.88
2022-08-05T12:55:06.871Z,56.25
2022-08-05T12:56:05.864Z,45.00
2022-08-05T12:57:09.548Z,33.75
2022-08-05T12:58:49.662Z,39.38
2022-08-05T12:59:13.741Z,33.75
2022-08-05T13:01:57.891Z,33.75
2022-08-05T13:02:01.517Z,50.62
2022-08-05T13:02:07.462Z,45.00
2022-08-05T13:03:05.791Z,56.25